createdAt,value
2022-08-09T00:01:30.007Z,99.90
2022-08-09T00:04:33.762Z,99.90
2022-08-09T00:07:01.123Z,99.90
2022-08-09T00:09:29.199Z,99.90
2022-08-09T00:12:03.601Z,99.90
2022-08-09T00:14:37.852Z,99.90
2022-08-09T00:17:05.466Z,99.90
2022-08-09T00:19:32.390Z,99.90
2022-08-09T00:22:01.106Z,99.90
2022-08-09T00:24:31.355Z,99.90
2022-08-09T00:27:00.085Z,99.90
2022-08-09T00:29:39.831Z,99.90
2022-08-09T00:32:35.767Z,99.90
2022-08-09T00:35:02.151Z,99.90
2022-08-09T00:37:32.314Z,99.90
2022-08-09T00:40:12.161Z,99.90
2022-08-09T00:44:16.260Z,99.90
2022-08-09T00:45:29.557Z,99.90
2022-08-09T00:47:56.206Z,99.90
2022-08-09T00:50:24.251Z,99.90
2022-08-09T00:52:52.187Z,99.90
2022-08-09T00:55:54.150Z,99.90
2022-08-09T00:58:09.147Z,99.90
2022-08-09T01:00:43.508Z,99.90
2022-08-09T01:03:28.469Z,99.90
2022-08-09T01:06:18.406Z,99.90
2022-08-09T01:09:18.948Z,99.90
2022-08-09T01:12:04.260Z,99.90
2022-08-09T01:14:52.686Z,99.90
2022-08-09T01:17:30.227Z,99.90
2022-08-09T01:20:04.875Z,99.90
2022-08-09T01:22:43.276Z,99.90
2022-08-09T01:25:32.435Z,99.90
2022-08-09T01:28:07.459Z,99.90
2022-08-09T01:30:52.138Z,99.90
2022-08-09T01:33:23.659Z,99.90
2022-08-09T01:36:01.587Z,99.90
2022-08-09T01:38:31.389Z,99.90
2022-08-09T01:41:05.724Z,99.90
2022-08-09T01:43:50.522Z,99.90
2022-08-09T01:46:40.121Z,99.90
2022-08-09T01:49:15.995Z,99.90
2022-08-09T01:51:54.840Z,99.90
2022-08-09T01:54:32.557Z,99.90
2022-08-09T01:57:04.835Z,99.90
2022-08-09T01:59:32.716Z,99.90
2022-08-09T02:02:09.817Z,99.90
2022-08-09T02:04:45.400Z,99.90
2022-08-09T02:08:35.375Z,99.90
2022-08-09T02:10:17.033Z,99.90
2022-08-09T02:12:45.753Z,99.90
2022-08-09T02:15:16.754Z,99.90
2022-08-09T02:18:09.412Z,99.90
2022-08-09T02:20:35.152Z,99.90
2022-08-09T02:23:12.751Z,99.90
2022-08-09T02:25:42.309Z,99.90
2022-08-09T02:28:18.825Z,99.90
2022-08-09T02:30:53.911Z,99.90
2022-08-09T02:33:58.320Z,99.90
2022-08-09T02:36:16.880Z,99.90
2022-08-09T02:38:53.062Z,99.90
2022-08-09T02:41:24.733Z,99.90
2022-08-09T02:43:54.745Z,99.90
2022-08-09T02:46:27.477Z,99.90
2022-08-09T02:48:58.734Z,99.90
2022-08-09T02:51:28.525Z,99.90
2022-08-09T02:54:05.658Z,99.90
2022-08-09T02:56:34.372Z,99.90
2022-08-09T02:59:05.692Z,99.90
2022-08-09T03:01:42.723Z,99.90
2022-08-09T03:04:28.891Z,99.90
2022-08-09T03:06:59.806Z,99.90
2022-08-09T03:09:42.862Z,99.90
2022-08-09T03:12:13.327Z,99.90
2022-08-09T03:14:42.167Z,99.90
2022-08-09T03:17:16.248Z,99.90
2022-08-09T03:19:58.883Z,99.90
2022-08-09T03:22:30.940Z,99.90
2022-08-09T03:25:06.670Z,99.90
2022-08-09T03:27:50.538Z,99.90
2022-08-09T03:30:28.083Z,99.90
2022-08-09T03:33:12.852Z,99.90
2022-08-09T03:36:12.793Z,99.90
2022-08-09T03:38:31.431Z,99.90
2022-08-09T03:40:58.162Z,99.90
2022-08-09T03:43:25.493Z,99.90
2022-08-09T03:46:05.397Z,99.90
2022-08-09T03:48:51.277Z,99.90
2022-08-09T03:51:55.737Z,99.90
2022-08-09T03:54:10.999Z,99.90
2022-08-09T03:56:41.959Z,99.90
2022-08-09T03:59:20.795Z,99.90
2022-08-09T04:01:56.450Z,99.90
2022-08-09T04:04:36.072Z,99.90
2022-08-09T04:07:03.848Z,99.90
2022-08-09T04:09:47.445Z,99.90
2022-08-09T04:12:46.922Z,99.90
2022-08-09T04:15:39.020Z,99.90
2022-08-09T04:18:06.115Z,99.90
2022-08-09T04:20:33.446Z,99.90
2022-08-09T04:23:00.667Z,99.90
2022-08-09T04:25:28.854Z,99.90
2022-08-09T04:28:00.034Z,99.90
2022-08-09T04:30:30.615Z,99.90
2022-08-09T04:32:57.273Z,99.90
2022-08-09T04:35:23.955Z,99.90
2022-08-09T04:37:50.629Z,99.90
2022-08-09T04:40:19.701Z,99.90
2022-08-09T04:43:03.657Z,99.90
2022-08-09T04:45:31.056Z,99.90
2022-08-09T04:48:07.974Z,99.90
2022-08-09T04:50:38.097Z,99.90
2022-08-09T04:53:06.357Z,99.90
2022-08-09T04:55:51.321Z,99.90
2022-08-09T04:58:25.827Z,99.90
2022-08-09T05:00:54.373Z,99.90
2022-08-09T05:03:40.879Z,99.90
2022-08-09T05:06:09.509Z,99.90
2022-08-09T05:08:36.294Z,99.90
2022-08-09T05:11:03.611Z,99.90
2022-08-09T05:13:34.114Z,99.90
2022-08-09T05:16:10.130Z,99.90
2022-08-09T05:18:55.493Z,99.90
2022-08-09T05:21:24.842Z,99.90
2022-08-09T05:24:01.186Z,99.90
2022-08-09T05:26:37.112Z,99.90
2022-08-09T05:29:17.544Z,99.90
2022-08-09T05:31:47.561Z,99.90
2022-08-09T05:34:18.732Z,99.90
2022-08-09T05:36:47.246Z,99.90
2022-08-09T05:39:28.955Z,99.90
2022-08-09T05:42:01.337Z,99.90
2022-08-09T05:44:32.736Z,99.90
2022-08-09T05:47:01.395Z,99.90
2022-08-09T05:50:24.324Z,99.90
2022-08-09T05:52:19.128Z,99.90
2022-08-09T05:54:46.424Z,99.90
2022-08-09T05:57:17.467Z,99.90
2022-08-09T05:59:45.916Z,99.90
2022-08-09T06:02:16.983Z,99.90
2022-08-09T06:04:46.084Z,99.90
2022-08-09T06:07:21.542Z,99.90
2022-08-09T06:09:54.328Z,99.90
2022-08-09T06:12:29.653Z,99.90
2022-08-09T06:15:00.643Z,99.90
2022-08-09T06:17:40.293Z,99.90
2022-08-09T06:20:08.338Z,99.90
2022-08-09T06:22:35.677Z,99.90
2022-08-09T06:25:03.243Z,99.90
2022-08-09T06:27:42.216Z,99.90
2022-08-09T06:30:13.916Z,99.90
2022-08-09T06:32:59.971Z,99.90
2022-08-09T06:35:56.521Z,99.90
2022-08-09T06:38:15.909Z,99.90
2022-08-09T06:40:43.247Z,99.90
2022-08-09T06:43:10.395Z,99.90
2022-08-09T06:46:07.092Z,99.90
2022-08-09T06:48:30.206Z,99.90
2022-08-09T06:50:58.474Z,99.90
2022-08-09T06:53:25.205Z,99.90
2022-08-09T06:55:52.433Z,99.90
2022-08-09T07:00:46.857Z,99.90
2022-08-09T07:01:06.198Z,99.90
2022-08-09T07:03:39.313Z,99.90
2022-08-09T07:06:18.393Z,99.90
2022-08-09T07:08:46.621Z,99.90
2022-08-09T07:11:17.565Z,99.90
2022-08-09T07:14:05.240Z,99.90
2022-08-09T07:16:41.262Z,99.90
2022-08-09T07:19:10.144Z,99.90
2022-08-09T07:21:41.940Z,99.90
2022-08-09T07:24:32.896Z,99.90
2022-08-09T07:27:15.487Z,99.90
2022-08-09T07:29:57.257Z,99.90
2022-08-09T07:32:32.545Z,99.90
2022-08-09T07:35:02.843Z,99.90
2022-08-09T07:37:43.444Z,99.90
2022-08-09T07:40:17.551Z,99.90
2022-08-09T07:42:54.371Z,99.90
2022-08-09T07:45:23.692Z,99.90
2022-08-09T07:48:06.313Z,99.90
2022-08-09T07:50:36.399Z,99.90
2022-08-09T07:53:05.122Z,99.90
2022-08-09T07:56:02.779Z,99.90
2022-08-09T07:58:21.525Z,99.90
2022-08-09T08:00:55.497Z,99.90
2022-08-09T08:03:24.165Z,99.90
2022-08-09T08:05:54.123Z,99.90
2022-08-09T08:09:00.310Z,99.90
2022-08-09T08:12:10.009Z,99.90
2022-08-09T08:13:56.345Z,99.90
2022-08-09T08:16:31.603Z,99.90
2022-08-09T08:18:59.313Z,99.90
2022-08-09T08:21:26.576Z,99.90
2022-08-09T08:23:55.569Z,99.60
2022-08-09T08:26:26.428Z,98.60
2022-08-09T08:29:08.989Z,99.40
2022-08-09T08:32:02.322Z,98.60
2022-08-09T08:34:25.489Z,98.30
2022-08-09T08:36:52.418Z,98.00
2022-08-09T08:39:19.135Z,96.20
2022-08-09T08:41:51.605Z,96.00
2022-08-09T08:44:27.062Z,94.60
2022-08-09T08:46:59.814Z,94.80
2022-08-09T08:49:38.580Z,93.30
2022-08-09T08:52:29.410Z,92.90
2022-08-09T08:55:03.959Z,91.80
2022-08-09T08:57:35.151Z,90.50
2022-08-09T09:00:07.892Z,91.10
2022-08-09T09:02:40.821Z,91.00
2022-08-09T09:05:12.034Z,90.20
2022-08-09T09:07:42.842Z,90.00
2022-08-09T09:10:12.009Z,89.80
2022-08-09T09:12:39.434Z,86.90
2022-08-09T09:15:07.133Z,85.10
2022-08-09T09:17:49.446Z,84.10
2022-08-09T09:20:21.184Z,86.90
2022-08-09T09:22:57.821Z,80.90
2022-08-09T09:26:01.265Z,81.00
2022-08-09T09:29:02.157Z,81.60
2022-08-09T09:31:17.160Z,82.10
2022-08-09T09:34:11.971Z,76.60
2022-08-09T09:36:50.978Z,76.10
2022-08-09T09:39:22.871Z,77.60
2022-08-09T09:41:50.959Z,79.30
2022-08-09T09:44:25.442Z,72.80
2022-08-09T09:47:15.978Z,71.20
2022-08-09T09:50:13.671Z,73.50
2022-08-09T09:52:52.426Z,74.30
2022-08-09T09:55:29.196Z,71.10
2022-08-09T09:58:16.354Z,71.30
2022-08-09T10:00:54.519Z,71.10
2022-08-09T10:03:56.300Z,71.90
2022-08-09T10:06:38.373Z,70.70
2022-08-09T10:09:11.820Z,68.80
2022-08-09T10:12:12.238Z,65.60
2022-08-09T10:14:48.743Z,69.70
2022-08-09T10:17:40.123Z,65.30
2022-08-09T10:20:27.386Z,62.20
2022-08-09T10:23:13.522Z,65.60
2022-08-09T10:26:06.307Z,63.60
2022-08-09T10:28:33.252Z,64.30
2022-08-09T10:34:08.781Z,64.00
2022-08-09T10:36:35.455Z,62.30
2022-08-09T10:39:02.876Z,65.10
2022-08-09T10:41:32.701Z,62.60
2022-08-09T10:44:03.169Z,60.90
2022-08-09T10:46:55.109Z,61.10
2022-08-09T10:49:42.366Z,62.20
2022-08-09T10:52:34.169Z,61.20
2022-08-09T10:55:26.603Z,60.90
2022-08-09T10:58:00.243Z,62.70
2022-08-09T11:00:37.225Z,60.30
2022-08-09T11:03:51.822Z,59.40
2022-08-09T11:06:16.796Z,60.60
2022-08-09T11:08:47.954Z,59.80
2022-08-09T11:11:19.177Z,60.40
2022-08-09T11:13:50.219Z,63.10
2022-08-09T11:16:38.318Z,60.00
2022-08-09T11:19:10.713Z,60.90
2022-08-09T11:21:56.962Z,59.90
2022-08-09T11:24:57.754Z,62.00
2022-08-09T11:28:04.332Z,60.50
2022-08-09T11:30:33.475Z,60.50
2022-08-09T11:33:38.413Z,59.70
2022-08-09T11:36:06.317Z,60.70
2022-08-09T11:38:41.581Z,60.50
2022-08-09T11:41:13.051Z,61.00
2022-08-09T11:43:47.592Z,62.00
2022-08-09T11:46:26.562Z,60.90
2022-08-09T11:49:00.975Z,61.70
2022-08-09T11:53:03.468Z,61.70
2022-08-09T11:55:35.167Z,58.40
2022-08-09T11:58:16.416Z,59.10
2022-08-09T12:00:55.540Z,59.70
2022-08-09T12:03:55.404Z,61.10
2022-08-09T12:06:14.637Z,59.50
2022-08-09T12:08:51.182Z,60.60
2022-08-09T12:11:21.102Z,60.70
2022-08-09T12:14:10.046Z,62.90
2022-08-09T12:16:42.834Z,60.20
2022-08-09T12:19:12.163Z,59.20
2022-08-09T12:21:50.358Z,58.20
2022-08-09T12:24:23.749Z,59.10
2022-08-09T12:28:57.562Z,59.70
2022-08-09T12:29:43.988Z,59.90
2022-08-09T12:32:26.141Z,58.00
2022-08-09T12:34:59.392Z,58.40
2022-08-09T12:37:50.547Z,59.40
2022-08-09T12:40:19.520Z,57.40
2022-08-09T12:42:50.598Z,57.30
2022-08-09T12:45:33.764Z,57.70
2022-08-09T12:48:11.029Z,57.40
2022-08-09T12:50:55.054Z,57.50
2022-08-09T12:53:38.725Z,58.70
2022-08-09T12:56:39.184Z,58.40
2022-08-09T12:59:05.950Z,57.50
2022-08-09T13:01:32.650Z,56.90
2022-08-09T13:04:06.919Z,57.10
2022-08-09T13:06:48.562Z,56.60
2022-08-09T13:09:23.089Z,56.10
2022-08-09T13:12:01.854Z,56.60
2022-08-09T13:14:42.230Z,56.30
2022-08-09T13:17:25.737Z,56.20
2022-08-09T13:20:08.483Z,55.70
2022-08-09T13:23:05.706Z,54.60
2022-08-09T13:25:54.649Z,56.10
2022-08-09T13:28:34.210Z,57.40
2022-08-09T13:32:13.313Z,57.20
2022-08-09T13:33:57.417Z,57.70
2022-08-09T13:36:41.667Z,57.20
2022-08-09T13:41:31.150Z,56.40
2022-08-09T13:42:12.703Z,55.50
2022-08-09T13:44:42.106Z,57.50
2022-08-09T13:47:26.446Z,55.90
2022-08-09T13:50:01.422Z,54.70
2022-08-09T13:52:31.960Z,54.70
2022-08-09T13:55:04.609Z,56.70
2022-08-09T13:57:39.878Z,56.40
2022-08-09T14:00:16.630Z,56.80
2022-08-09T14:03:03.911Z,55.80
2022-08-09T14:06:00.088Z,57.30
2022-08-09T14:08:20.695Z,56.50
2022-08-09T14:10:50.390Z,57.40
2022-08-09T14:13:27.681Z,56.20
2022-08-09T14:16:11.526Z,54.30
2022-08-09T14:18:45.329Z,54.70
2022-08-09T14:21:16.091Z,56.10
2022-08-09T14:23:53.786Z,55.30
2022-08-09T14:26:21.676Z,56.00
2022-08-09T14:28:48.303Z,55.90
2022-08-09T14:31:14.929Z,54.80
2022-08-09T14:33:42.247Z,55.40
2022-08-09T14:36:20.292Z,56.00
2022-08-09T14:38:52.714Z,55.10
2022-08-09T14:41:40.408Z,55.10
2022-08-09T14:44:07.471Z,56.00
2022-08-09T14:46:57.965Z,55.70
2022-08-09T14:49:25.753Z,55.50
2022-08-09T14:51:58.200Z,56.10
2022-08-09T14:54:27.649Z,56.30
2022-08-09T14:56:57.740Z,56.60
2022-08-09T14:59:29.104Z,56.00
2022-08-09T15:01:57.350Z,56.20
2022-08-09T15:04:25.361Z,56.60
2022-08-09T15:06:52.152Z,56.10
2022-08-09T15:10:03.533Z,56.30
2022-08-09T15:12:08.108Z,55.50
2022-08-09T15:14:35.299Z,55.60
2022-08-09T15:17:05.989Z,55.70
2022-08-09T15:19:35.971Z,56.00
2022-08-09T15:22:03.467Z,56.20
2022-08-09T15:24:30.504Z,57.20
2022-08-09T15:26:57.772Z,56.50
2022-08-09T15:30:58.844Z,56.80
2022-08-09T15:32:29.000Z,57.40
2022-08-09T15:34:57.370Z,58.00
2022-08-09T15:37:23.967Z,56.70
2022-08-09T15:39:54.734Z,56.40
2022-08-09T15:42:22.025Z,56.90
2022-08-09T15:44:49.197Z,56.20
2022-08-09T15:47:21.722Z,56.20
2022-08-09T15:50:04.393Z,56.60
2022-08-09T15:52:36.741Z,55.40
2022-08-09T15:55:08.845Z,55.60
2022-08-09T15:57:44.295Z,55.40
2022-08-09T16:00:25.662Z,55.10
2022-08-09T16:02:54.912Z,55.60
2022-08-09T16:05:25.506Z,55.40
2022-08-09T16:07:52.232Z,55.50
2022-08-09T16:10:55.312Z,54.90
2022-08-09T16:13:18.432Z,54.40
2022-08-09T16:16:04.487Z,54.70
2022-08-09T16:18:32.562Z,54.60
2022-08-09T16:20:59.349Z,55.10
2022-08-09T16:23:26.929Z,55.80
2022-08-09T16:26:01.053Z,56.10
2022-08-09T16:28:29.588Z,56.30
2022-08-09T16:30:58.802Z,56.30
2022-08-09T16:33:26.660Z,56.10
2022-08-09T16:35:58.312Z,56.30
2022-08-09T16:38:27.484Z,56.10
2022-08-09T16:40:55.653Z,55.70
2022-08-09T16:43:23.076Z,56.20
2022-08-09T16:45:53.642Z,56.40
2022-08-09T16:48:39.646Z,56.70
2022-08-09T16:51:13.879Z,56.50
2022-08-09T16:54:02.559Z,56.50
2022-08-09T16:56:30.452Z,56.80
2022-08-09T16:58:58.561Z,56.70
2022-08-09T17:01:25.770Z,56.90
2022-08-09T17:03:53.112Z,57.40
2022-08-09T17:06:31.184Z,57.60
2022-08-09T17:09:43.529Z,58.30
2022-08-09T17:11:48.158Z,58.50
2022-08-09T17:14:26.945Z,58.40
2022-08-09T17:17:01.873Z,58.00
2022-08-09T17:19:47.348Z,57.60
2022-08-09T17:22:25.053Z,57.80
2022-08-09T17:25:09.760Z,57.90
2022-08-09T17:27:39.932Z,58.00
2022-08-09T17:30:16.395Z,58.00
2022-08-09T17:32:45.538Z,58.40
2022-08-09T17:35:13.966Z,59.80
2022-08-09T17:38:14.536Z,58.40
2022-08-09T17:40:31.939Z,58.70
2022-08-09T17:42:59.831Z,59.10
2022-08-09T17:46:02.942Z,59.00
2022-08-09T17:48:28.452Z,59.30
2022-08-09T17:51:06.606Z,59.40
2022-08-09T17:53:43.045Z,59.30
2022-08-09T17:56:14.715Z,59.20
2022-08-09T17:58:44.956Z,59.80
2022-08-09T18:01:15.446Z,59.40
2022-08-09T18:03:54.603Z,59.90
2022-08-09T18:06:32.326Z,60.00
2022-08-09T18:09:05.122Z,60.30
2022-08-09T18:12:05.903Z,61.30
2022-08-09T18:14:21.441Z,61.20
2022-08-09T18:16:49.496Z,61.80
2022-08-09T18:20:58.425Z,62.40
2022-08-09T18:22:04.331Z,62.80
2022-08-09T18:24:31.243Z,62.70
2022-08-09T18:26:58.018Z,63.00
2022-08-09T18:30:42.017Z,63.40
2022-08-09T18:32:14.707Z,63.90
2022-08-09T18:34:46.063Z,63.10
2022-08-09T18:37:47.624Z,63.80
2022-08-09T18:40:01.837Z,64.80
2022-08-09T18:42:29.651Z,64.50
2022-08-09T18:44:57.148Z,65.30
2022-08-09T18:47:32.796Z,65.40
2022-08-09T18:50:06.192Z,66.10
2022-08-09T18:52:35.893Z,66.30
2022-08-09T18:55:03.851Z,66.10
2022-08-09T18:57:38.478Z,66.60
2022-08-09T19:00:11.392Z,66.90
2022-08-09T19:02:43.587Z,66.30
2022-08-09T19:05:20.595Z,66.40
2022-08-09T19:08:04.211Z,67.30
2022-08-09T19:10:39.253Z,67.70
2022-08-09T19:13:22.810Z,67.90
2022-08-09T19:15:55.824Z,68.50
2022-08-09T19:18:34.016Z,68.80
2022-08-09T19:21:09.703Z,68.90
2022-08-09T19:24:33.463Z,69.40
2022-08-09T19:26:31.165Z,69.60
2022-08-09T19:29:01.993Z,70.10
2022-08-09T19:31:30.463Z,70.50
2022-08-09T19:33:58.139Z,71.30
2022-08-09T19:36:32.602Z,72.60
2022-08-09T19:39:03.470Z,72.10
2022-08-09T19:41:33.274Z,72.00
2022-08-09T19:44:03.227Z,72.90
2022-08-09T19:46:35.936Z,73.20
2022-08-09T19:50:09.845Z,73.80
2022-08-09T19:52:03.870Z,74.00
2022-08-09T19:54:30.871Z,74.90
2022-08-09T19:56:58.148Z,74.80
2022-08-09T19:59:58.308Z,74.90
2022-08-09T20:04:06.840Z,74.90
2022-08-09T20:04:59.405Z,75.60
2022-08-09T20:07:57.185Z,76.10
2022-08-09T20:10:17.783Z,76.40
2022-08-09T20:12:49.107Z,76.10
2022-08-09T20:16:34.005Z,75.10
2022-08-09T20:18:08.355Z,75.70
2022-08-09T20:20:35.572Z,75.30
2022-08-09T20:23:04.523Z,76.40
2022-08-09T20:25:49.553Z,76.00
2022-08-09T20:28:28.205Z,76.70
2022-08-09T20:31:05.149Z,77.30
2022-08-09T20:33:40.982Z,78.10
2022-08-09T20:36:08.519Z,77.70
2022-08-09T20:38:50.400Z,77.80
2022-08-09T20:41:35.114Z,77.20
2022-08-09T20:44:06.972Z,76.90
2022-08-09T20:46:42.692Z,76.90
2022-08-09T20:49:16.075Z,77.00
2022-08-09T20:51:44.388Z,77.50
2022-08-09T20:54:16.868Z,77.40
2022-08-09T20:56:53.399Z,77.80
2022-08-09T20:59:24.886Z,78.40
2022-08-09T21:02:07.661Z,78.80
2022-08-09T21:05:54.869Z,79.20
2022-08-09T21:07:20.986Z,79.30
2022-08-09T21:09:58.333Z,79.50
2022-08-09T21:12:56.456Z,79.90
2022-08-09T21:15:14.458Z,80.20
2022-08-09T21:18:20.877Z,81.20
2022-08-09T21:20:29.835Z,81.80
2022-08-09T21:22:57.277Z,82.10
2022-08-09T21:25:25.418Z,81.90
2022-08-09T21:27:53.226Z,82.30
2022-08-09T21:30:22.236Z,82.90
2022-08-09T21:32:50.307Z,83.30
2022-08-09T21:35:17.289Z,83.40
2022-08-09T21:37:56.932Z,83.10
2022-08-09T21:40:30.985Z,83.20
2022-08-09T21:43:03.087Z,83.30
2022-08-09T21:45:30.436Z,83.40
2022-08-09T21:47:57.946Z,83.30
2022-08-09T21:50:36.026Z,83.50
2022-08-09T21:53:19.842Z,83.10
2022-08-09T21:55:54.458Z,83.20
2022-08-09T21:58:21.082Z,83.60
2022-08-09T22:00:55.967Z,83.50
2022-08-09T22:03:25.384Z,83.60
2022-08-09T22:05:54.272Z,83.90
2022-08-09T22:08:24.593Z,83.90
2022-08-09T22:11:49.991Z,84.30
2022-08-09T22:13:42.270Z,84.10
2022-08-09T22:16:10.995Z,84.40
2022-08-09T22:18:53.407Z,84.30
2022-08-09T22:21:24.119Z,84.70
2022-08-09T22:23:59.375Z,84.90
2022-08-09T22:26:35.296Z,85.40
2022-08-09T22:29:07.410Z,85.60
2022-08-09T22:31:35.810Z,85.70
2022-08-09T22:34:03.031Z,85.80
2022-08-09T22:36:45.615Z,86.00
2022-08-09T22:39:46.957Z,85.70
2022-08-09T22:42:03.959Z,85.60
2022-08-09T22:44:33.226Z,85.60
2022-08-09T22:48:15.375Z,85.60
2022-08-09T22:49:52.026Z,85.70
2022-08-09T22:52:19.806Z,85.50
2022-08-09T22:54:47.181Z,85.80
2022-08-09T22:57:14.454Z,86.30
2022-08-09T22:59:57.765Z,86.60
2022-08-09T23:02:26.046Z,87.20
2022-08-09T23:04:56.952Z,87.40
2022-08-09T23:08:16.328Z,87.70
2022-08-09T23:10:12.175Z,88.30
2022-08-09T23:12:39.024Z,88.60
2022-08-09T23:15:06.014Z,89.10
2022-08-09T23:17:32.880Z,89.80
2022-08-09T23:20:06.740Z,90.20
2022-08-09T23:22:35.878Z,90.40
2022-08-09T23:25:04.382Z,90.80
2022-08-09T23:27:31.051Z,91.00
2022-08-09T23:29:57.698Z,91.00
2022-08-09T23:32:24.382Z,91.30
2022-08-09T23:34:51.086Z,91.40
2022-08-09T23:37:17.741Z,91.60
2022-08-09T23:39:48.357Z,91.50
2022-08-09T23:42:15.149Z,91.70
2022-08-09T23:44:41.802Z,91.70
2022-08-09T23:47:08.449Z,91.80
2022-08-09T23:49:35.185Z,91.90
2022-08-09T23:52:01.950Z,92.00
2022-08-09T23:54:28.588Z,92.10
2022-08-09T23:56:56.080Z,92.10
2022-08-09T23:59:24.759Z,92.40
